»·PEaware :: CAX352 KPHX-KLAX

CAX352 :: KPHX-KLAX

FLIGHT INFORMATION

Flight Status: Arrived
Operator:
California Airlines (website)
More flights by this operator :: More flights under this callsign
Pilot: Dan K. (1691)
Aircraft: BOEING 737-800
(B738)
More flights by this aircraft type
Origin: KPHX Phoenix Sky Harbor Intl
United States
Destination: KLAX Los Angeles Intl
United States
More flights between these airports :: More routes between these airports
Route: +IZZZO6 MESSI PKE TNP SEAVU2
File this flight plan on PilotEdge
Remarks:
Altitude:
(Current/Filed)
40,000ft
Speed:
(Current/Filed)
458kts
Departed: 21-Oct-17 07:46 PM
Arrived: 21-Oct-17 08:49 PM
Distance/Time
Traveled:
320nm/1:03
Distance/Time
To Go:
Arrived

Flight Plot

Page will automatically refresh every two minutes.


Map Options




Map Legend


Flown Route
Filed Route
Departure Airport
Arrival Airport
Navaid (VOR, NDB)
Fix

Horizontal Profiles

Position Reports

Time Latitude Longitude Heading Altitude Ground
Speed
21-Oct-17 19:32 33.425127 -112.016516 90 1141ft 0kts
21-Oct-17 19:33 33.425127 -112.016516 90 1141ft 0kts
21-Oct-17 19:34 33.425127 -112.016516 90 1141ft 0kts
21-Oct-17 19:35 33.425127 -112.016516 90 1141ft 0kts
21-Oct-17 19:36 33.425127 -112.016516 90 1142ft 0kts
21-Oct-17 19:37 33.425127 -112.016516 90 1142ft 0kts
21-Oct-17 19:38 33.425126 -112.016879 90 1142ft 2kts
21-Oct-17 19:39 33.424939 -112.017375 18 1142ft 2kts
21-Oct-17 19:40 33.424669 -112.017386 360 1142ft 0kts
21-Oct-17 19:41 33.424669 -112.017386 360 1142ft 0kts
21-Oct-17 19:42 33.424983 -112.017386 0 1142ft 5kts
21-Oct-17 19:43 33.425893 -112.017387 359 1142ft 0kts
21-Oct-17 19:44 33.426629 -112.017390 359 1142ft 7kts
21-Oct-17 19:45 33.427751 -112.015008 89 1142ft 16kts
21-Oct-17 19:46 33.427750 -112.009016 90 1142ft 12kts
21-Oct-17 19:47 33.427765 -112.005474 70 1142ft 3kts
21-Oct-17 19:48 33.427831 -112.005387 20 1142ft 0kts
21-Oct-17 19:49 33.427831 -112.005387 20 1142ft 0kts
21-Oct-17 19:50 33.428219 -112.005279 1 1142ft 7kts
21-Oct-17 19:51 33.428830 -112.008228 271 1142ft 42kts
21-Oct-17 19:52 33.429189 -112.053020 271 2633ft 167kts
21-Oct-17 19:53 33.431406 -112.106402 271 4480ft 178kts
21-Oct-17 19:54 33.433901 -112.169924 271 6040ft 216kts
21-Oct-17 19:55 33.437013 -112.250459 272 7850ft 282kts
21-Oct-17 19:56 33.440390 -112.339570 275 11390ft 275kts
21-Oct-17 19:57 33.444045 -112.435346 276 13768ft 305kts
21-Oct-17 19:58 33.447630 -112.531474 274 16947ft 313kts
21-Oct-17 19:59 33.450757 -112.637922 272 20363ft 330kts
21-Oct-17 20:00 33.451946 -112.736521 272 23183ft 341kts
21-Oct-17 20:01 33.468865 -112.847835 292 25911ft 354kts
21-Oct-17 20:02 33.506860 -112.956792 292 28637ft 358kts
21-Oct-17 20:03 33.544102 -113.065100 292 31347ft 350kts
21-Oct-17 20:04 33.580634 -113.171265 293 33582ft 344kts
21-Oct-17 20:05 33.616564 -113.275445 293 35568ft 336kts
21-Oct-17 20:06 33.648081 -113.366620 293 37074ft 330kts
21-Oct-17 20:07 33.682955 -113.467269 293 38340ft 329kts
21-Oct-17 20:08 33.716491 -113.563855 293 39489ft 325kts
21-Oct-17 20:09 33.751038 -113.663149 293 40053ft 324kts
21-Oct-17 20:10 33.786475 -113.764906 293 40089ft 341kts
21-Oct-17 20:11 33.823560 -113.871822 292 40137ft 358kts
21-Oct-17 20:12 33.862183 -113.984867 292 40139ft 376kts
21-Oct-17 20:13 33.902834 -114.103816 292 40144ft 395kts
21-Oct-17 20:14 33.945211 -114.227492 293 40122ft 400kts
21-Oct-17 20:15 33.987797 -114.351417 293 40123ft 401kts
21-Oct-17 20:16 34.030474 -114.475241 293 40122ft 401kts
21-Oct-17 20:17 34.066167 -114.578531 293 40121ft 401kts
21-Oct-17 20:18 34.103802 -114.712933 273 40141ft 405kts
21-Oct-17 20:19 34.103522 -114.848064 272 40132ft 405kts
21-Oct-17 20:20 34.104282 -114.982931 273 40134ft 407kts
21-Oct-17 20:21 34.105114 -115.095434 273 40132ft 406kts
21-Oct-17 20:22 34.106460 -115.253108 273 40155ft 406kts
21-Oct-17 20:23 34.107780 -115.389378 273 38388ft 403kts
21-Oct-17 20:24 34.109250 -115.523798 273 36488ft 412kts
21-Oct-17 20:25 34.110602 -115.638525 273 34926ft 415kts
21-Oct-17 20:26 34.111755 -115.731776 272 33705ft 422kts
21-Oct-17 20:27 34.097335 -115.871664 261 31876ft 431kts
21-Oct-17 20:28 34.075572 -116.013517 262 30033ft 437kts
21-Oct-17 20:29 34.054331 -116.154550 262 28182ft 431kts
21-Oct-17 20:30 34.034311 -116.288534 262 26346ft 416kts
21-Oct-17 20:31 34.017022 -116.405020 262 24698ft 404kts
21-Oct-17 20:32 34.001000 -116.535598 266 22793ft 394kts
21-Oct-17 20:33 33.991532 -116.658044 266 20991ft 388kts
21-Oct-17 20:34 33.982464 -116.771009 266 19329ft 381kts
21-Oct-17 20:35 33.972667 -116.888930 265 17570ft 377kts
21-Oct-17 20:36 33.962967 -117.005662 266 17262ft 345kts
21-Oct-17 20:37 33.953604 -117.119948 266 17067ft 347kts
21-Oct-17 20:38 33.943778 -117.235597 266 16176ft 349kts
21-Oct-17 20:39 33.934167 -117.347791 266 14262ft 328kts
21-Oct-17 20:40 33.957187 -117.447740 294 12381ft 314kts
21-Oct-17 20:41 33.980107 -117.539394 283 11533ft 312kts
21-Oct-17 20:42 33.998158 -117.636716 282 10213ft 288kts
21-Oct-17 20:43 34.004210 -117.723382 261 9743ft 283kts
21-Oct-17 20:44 33.996017 -117.813907 260 8842ft 259kts
21-Oct-17 20:45 33.988091 -117.884115 262 8031ft 241kts
21-Oct-17 20:46 33.974675 -117.960777 238 7489ft 245kts
21-Oct-17 20:47 33.968266 -118.041183 270 5661ft 248kts
21-Oct-17 20:48 33.962210 -118.113308 263 5494ft 184kts
21-Oct-17 20:49 33.956215 -118.172987 263 4034ft 163kts
21-Oct-17 20:50 33.952372 -118.225600 264 2449ft 156kts
21-Oct-17 20:51 33.948380 -118.275074 263 1736ft 142kts
21-Oct-17 20:52 33.943344 -118.321511 261 1073ft 138kts
21-Oct-17 20:53 33.939031 -118.366564 262 403ft 135kts
21-Oct-17 20:54 33.935308 -118.400847 248 133ft 27kts
21-Oct-17 20:55 33.934463 -118.401979 163 133ft 0kts
21-Oct-17 20:56 33.934432 -118.399262 84 133ft 23kts
21-Oct-17 20:57 33.935246 -118.391381 83 132ft 25kts
21-Oct-17 20:58 33.935883 -118.385144 83 132ft 14kts
21-Oct-17 20:59 33.935658 -118.381266 179 133ft 9kts
21-Oct-17 21:00 33.933959 -118.382126 224 133ft 0kts

Navigation Log

Ident Type
Flight plan parsing failed, navigation log unavailable